createdAt,value
2016-08-07T00:00:31.283Z,21.84
2016-08-07T00:01:31.000Z,21.83
2016-08-07T00:02:27.214Z,21.83
2016-08-07T00:03:27.597Z,21.83
2016-08-07T00:04:27.749Z,21.82
2016-08-07T00:05:33.088Z,21.82
2016-08-07T00:06:14.000Z,21.82
2016-08-07T00:07:23.363Z,21.82
2016-08-07T00:08:21.832Z,21.81
2016-08-07T00:09:14.271Z,21.81
2016-08-07T00:10:17.819Z,21.81
2016-08-07T00:11:34.052Z,21.82
2016-08-07T00:12:14.387Z,21.81
2016-08-07T00:13:32.132Z,21.81
2016-08-07T00:14:28.568Z,21.81
2016-08-07T00:15:31.606Z,21.81
2016-08-07T00:16:25.661Z,21.81
2016-08-07T00:17:25.401Z,21.81
2016-08-07T00:18:15.843Z,21.86
2016-08-07T00:19:12.594Z,21.81
2016-08-07T00:20:27.863Z,21.83
2016-08-07T00:21:19.361Z,21.81
2016-08-07T00:22:38.835Z,21.81
2016-08-07T00:23:26.186Z,21.81
2016-08-07T00:24:29.118Z,21.81
2016-08-07T00:25:31.901Z,21.83
2016-08-07T00:26:35.103Z,21.80
2016-08-07T00:27:33.922Z,21.81
2016-08-07T00:28:15.486Z,21.81
2016-08-07T00:29:20.451Z,21.80
2016-08-07T00:30:21.832Z,21.80
2016-08-07T00:31:13.276Z,21.80
2016-08-07T00:32:34.296Z,21.81
2016-08-07T00:33:32.413Z,21.81
2016-08-07T00:34:35.114Z,21.80
2016-08-07T00:35:19.369Z,21.80
2016-08-07T00:36:28.623Z,21.81
2016-08-07T00:37:32.443Z,21.81
2016-08-07T00:38:30.551Z,21.81
2016-08-07T00:39:33.684Z,22.34
2016-08-07T00:40:31.949Z,22.39
2016-08-07T00:41:37.993Z,22.43
2016-08-07T00:42:35.127Z,22.44
2016-08-07T00:43:15.745Z,21.91
2016-08-07T00:44:26.708Z,21.86
2016-08-07T00:45:28.017Z,21.84
2016-08-07T00:46:29.613Z,21.82
2016-08-07T00:47:30.903Z,21.81
2016-08-07T00:48:25.562Z,21.81
2016-08-07T00:49:22.977Z,21.80
2016-08-07T00:50:28.173Z,21.81
2016-08-07T00:51:25.317Z,21.80
2016-08-07T00:52:31.803Z,21.80
2016-08-07T00:53:33.723Z,21.80
2016-08-07T00:54:28.283Z,21.80
2016-08-07T00:55:28.512Z,21.79
2016-08-07T00:56:24.131Z,21.80
2016-08-07T00:57:22.957Z,21.79
2016-08-07T00:58:31.590Z,21.80
2016-08-07T00:59:22.701Z,21.79
2016-08-07T01:00:30.480Z,21.79
2016-08-07T01:01:34.498Z,21.83
2016-08-07T01:02:31.227Z,21.78
2016-08-07T01:03:22.337Z,21.78
2016-08-07T01:04:21.252Z,22.33
2016-08-07T01:05:22.726Z,22.06
2016-08-07T01:06:17.194Z,21.87
2016-08-07T01:07:38.860Z,21.82
2016-08-07T01:08:26.928Z,21.81
2016-08-07T01:09:23.772Z,21.80
2016-08-07T01:10:15.293Z,21.80
2016-08-07T01:11:19.763Z,21.80
2016-08-07T01:12:13.379Z,21.78
2016-08-07T01:13:34.860Z,21.79
2016-08-07T01:14:34.756Z,21.78
2016-08-07T01:15:33.483Z,21.79
2016-08-07T01:16:26.586Z,21.78
2016-08-07T01:17:27.754Z,21.79
2016-08-07T01:18:21.118Z,21.79
2016-08-07T01:19:27.720Z,21.80
2016-08-07T01:20:34.574Z,21.78
2016-08-07T01:21:28.687Z,21.79
2016-08-07T01:22:13.585Z,21.78
2016-08-07T01:23:30.460Z,22.32
2016-08-07T01:24:21.263Z,22.38
2016-08-07T01:25:39.063Z,22.40
2016-08-07T01:26:40.463Z,22.42
2016-08-07T01:27:31.503Z,22.43
2016-08-07T01:28:13.810Z,22.07
2016-08-07T01:29:29.517Z,21.88
2016-08-07T01:30:23.866Z,21.84
2016-08-07T01:31:13.121Z,21.83
2016-08-07T01:32:20.990Z,21.80
2016-08-07T01:33:27.774Z,21.79
2016-08-07T01:34:33.472Z,21.79
2016-08-07T01:35:13.404Z,21.79
2016-08-07T01:37:28.784Z,21.78
2016-08-07T01:38:31.150Z,21.78
2016-08-07T01:39:37.542Z,21.78
2016-08-07T01:40:30.986Z,21.77
2016-08-07T01:41:15.584Z,21.78
2016-08-07T01:42:32.372Z,21.77
2016-08-07T01:43:31.544Z,21.77
2016-08-07T01:44:35.022Z,21.77
2016-08-07T01:45:28.473Z,21.78
2016-08-07T01:46:26.460Z,21.77
2016-08-07T01:47:24.611Z,21.77
2016-08-07T01:48:31.032Z,21.78
2016-08-07T01:49:35.756Z,21.77
2016-08-07T01:50:12.916Z,21.77
2016-08-07T01:51:43.321Z,21.76
2016-08-07T01:52:33.332Z,21.77
2016-08-07T01:53:26.564Z,21.77
2016-08-07T01:54:33.765Z,21.76
2016-08-07T01:55:27.132Z,21.76
2016-08-07T01:56:22.327Z,21.82
2016-08-07T01:57:19.628Z,21.75
2016-08-07T01:58:33.601Z,21.76
2016-08-07T01:59:27.945Z,21.76
2016-08-07T02:00:21.177Z,21.76
2016-08-07T02:01:27.925Z,21.76
2016-08-07T02:02:32.517Z,21.76
2016-08-07T02:03:26.942Z,21.76
2016-08-07T02:04:23.366Z,21.76
2016-08-07T02:05:13.664Z,21.77
2016-08-07T02:07:28.822Z,21.76
2016-08-07T02:08:28.425Z,21.76
2016-08-07T02:09:28.187Z,21.76
2016-08-07T02:10:33.803Z,21.76
2016-08-07T02:11:38.010Z,21.75
2016-08-07T02:12:30.467Z,21.75
2016-08-07T02:13:26.454Z,21.76
2016-08-07T02:14:31.132Z,21.74
2016-08-07T02:15:20.364Z,21.76
2016-08-07T02:16:25.086Z,21.75
2016-08-07T02:17:16.907Z,21.75
2016-08-07T02:18:25.965Z,21.75
2016-08-07T02:19:33.583Z,21.75
2016-08-07T02:20:21.816Z,21.75
2016-08-07T02:21:37.010Z,21.75
2016-08-07T02:22:27.840Z,21.75
2016-08-07T02:23:28.753Z,21.75
2016-08-07T02:24:22.796Z,21.75
2016-08-07T02:25:33.467Z,21.75
2016-08-07T02:26:33.600Z,21.75
2016-08-07T02:27:42.526Z,21.75
2016-08-07T02:28:22.318Z,21.75
2016-08-07T02:29:16.626Z,21.74
2016-08-07T02:30:31.856Z,21.74
2016-08-07T02:31:27.603Z,21.74
2016-08-07T02:32:33.814Z,21.76
2016-08-07T02:33:32.322Z,21.74
2016-08-07T02:34:24.885Z,21.75
2016-08-07T02:35:17.215Z,21.75
2016-08-07T02:37:32.629Z,21.90
2016-08-07T02:38:30.308Z,21.76
2016-08-07T02:39:27.647Z,21.73
2016-08-07T02:40:31.235Z,21.74
2016-08-07T02:41:29.267Z,21.72
2016-08-07T02:42:21.574Z,21.71
2016-08-07T02:43:32.606Z,21.71
2016-08-07T02:44:26.532Z,21.72
2016-08-07T02:45:34.532Z,21.73
2016-08-07T02:46:40.139Z,21.71
2016-08-07T02:47:33.895Z,21.72
2016-08-07T02:48:13.825Z,21.71
2016-08-07T02:49:22.541Z,21.72
2016-08-07T02:50:21.581Z,21.72
2016-08-07T02:51:36.925Z,21.71
2016-08-07T02:52:32.170Z,21.71
2016-08-07T02:53:17.755Z,21.72
2016-08-07T02:54:28.994Z,21.75
2016-08-07T02:55:32.274Z,21.71
2016-08-07T02:56:22.683Z,21.71
2016-08-07T02:57:33.156Z,21.71
2016-08-07T02:58:34.093Z,21.71
2016-08-07T02:59:32.725Z,21.71
2016-08-07T03:00:23.016Z,21.70
2016-08-07T03:01:14.361Z,21.70
2016-08-07T03:02:32.950Z,21.71
2016-08-07T03:03:28.364Z,21.71
2016-08-07T03:04:23.049Z,21.71
2016-08-07T03:05:27.604Z,21.70
2016-08-07T03:06:34.305Z,21.70
2016-08-07T03:07:35.498Z,21.70
2016-08-07T03:08:25.913Z,21.70
2016-08-07T03:09:44.746Z,21.70
2016-08-07T03:10:34.149Z,21.70
2016-08-07T03:11:36.943Z,21.70
2016-08-07T03:12:27.022Z,21.70
2016-08-07T03:13:33.063Z,21.70
2016-08-07T03:14:30.194Z,21.70
2016-08-07T03:15:29.029Z,21.70
2016-08-07T03:16:37.262Z,21.71
2016-08-07T03:17:32.991Z,21.70
2016-08-07T03:18:30.483Z,21.72
2016-08-07T03:19:23.157Z,21.86
2016-08-07T03:20:30.918Z,21.74
2016-08-07T03:21:15.962Z,21.72
2016-08-07T03:22:19.825Z,21.71
2016-08-07T03:23:33.186Z,21.70
2016-08-07T03:24:39.347Z,21.69
2016-08-07T03:25:31.412Z,21.69
2016-08-07T03:26:32.767Z,21.69
2016-08-07T03:27:20.535Z,21.68
2016-08-07T03:28:27.564Z,21.67
2016-08-07T03:29:19.952Z,22.21
2016-08-07T03:30:28.386Z,22.27
2016-08-07T03:31:24.416Z,22.29
2016-08-07T03:32:14.579Z,22.31
2016-08-07T03:33:23.062Z,21.78
2016-08-07T03:34:25.042Z,21.73
2016-08-07T03:35:22.315Z,21.71
2016-08-07T03:36:26.287Z,21.70
2016-08-07T03:37:26.783Z,21.69
2016-08-07T03:38:33.013Z,21.68
2016-08-07T03:39:21.692Z,21.69
2016-08-07T03:40:43.797Z,21.67
2016-08-07T03:41:33.012Z,21.67
2016-08-07T03:42:30.418Z,21.74
2016-08-07T03:43:34.249Z,21.67
2016-08-07T03:44:34.072Z,21.67
2016-08-07T03:45:32.705Z,21.66
2016-08-07T03:46:28.948Z,21.67
2016-08-07T03:47:13.262Z,21.66
2016-08-07T03:48:26.398Z,22.20
2016-08-07T03:49:35.025Z,22.26
2016-08-07T03:50:17.031Z,22.30
2016-08-07T03:51:19.404Z,22.30
2016-08-07T03:52:33.507Z,22.32
2016-08-07T03:53:34.502Z,22.31
2016-08-07T03:54:12.705Z,21.78
2016-08-07T03:55:28.671Z,21.73
2016-08-07T03:56:33.302Z,21.70
2016-08-07T03:57:30.173Z,21.69
2016-08-07T03:58:34.649Z,21.68
2016-08-07T03:59:34.862Z,21.67
2016-08-07T04:00:32.869Z,21.67
2016-08-07T04:01:20.805Z,21.70
2016-08-07T04:02:15.168Z,21.66
2016-08-07T04:03:29.010Z,21.70
2016-08-07T04:04:35.474Z,21.65
2016-08-07T04:05:34.091Z,21.65
2016-08-07T04:06:32.842Z,21.65
2016-08-07T04:07:26.917Z,21.65
2016-08-07T04:08:33.116Z,21.65
2016-08-07T04:09:38.404Z,21.65
2016-08-07T04:10:23.902Z,21.65
2016-08-07T04:11:25.524Z,21.65
2016-08-07T04:12:15.784Z,21.68
2016-08-07T04:13:34.492Z,21.65
2016-08-07T04:14:16.715Z,21.64
2016-08-07T04:15:30.338Z,21.64
2016-08-07T04:16:33.273Z,21.64
2016-08-07T04:17:33.587Z,21.65
2016-08-07T04:18:26.975Z,21.64
2016-08-07T04:19:29.551Z,21.64
2016-08-07T04:20:34.727Z,21.64
2016-08-07T04:21:28.376Z,21.64
2016-08-07T04:22:23.740Z,21.64
2016-08-07T04:23:33.399Z,21.64
2016-08-07T04:24:24.093Z,21.64
2016-08-07T04:25:25.846Z,21.66
2016-08-07T04:26:27.460Z,22.18
2016-08-07T04:27:30.941Z,21.94
2016-08-07T04:28:22.272Z,21.71
2016-08-07T04:29:33.758Z,21.67
2016-08-07T04:30:27.670Z,21.65
2016-08-07T04:31:34.809Z,21.64
2016-08-07T04:32:33.246Z,21.64
2016-08-07T04:33:33.587Z,21.64
2016-08-07T04:34:29.334Z,21.63
2016-08-07T04:35:20.126Z,21.66
2016-08-07T04:36:38.892Z,21.63
2016-08-07T04:37:13.945Z,21.63
2016-08-07T04:38:35.015Z,21.63
2016-08-07T04:39:31.014Z,21.62
2016-08-07T04:40:38.003Z,21.62
2016-08-07T04:41:26.518Z,21.61
2016-08-07T04:42:15.207Z,22.16
2016-08-07T04:43:14.601Z,21.69
2016-08-07T04:44:12.471Z,21.65
2016-08-07T04:45:28.710Z,21.64
2016-08-07T04:46:37.700Z,21.63
2016-08-07T04:47:17.042Z,21.63
2016-08-07T04:48:45.508Z,21.61
2016-08-07T04:49:24.623Z,21.62
2016-08-07T04:50:28.356Z,21.61
2016-08-07T04:51:24.101Z,21.61
2016-08-07T04:52:23.342Z,21.62
2016-08-07T04:53:34.549Z,21.62
2016-08-07T04:54:14.374Z,21.63
2016-08-07T04:55:31.295Z,21.62
2016-08-07T04:56:39.332Z,21.61
2016-08-07T04:57:16.635Z,21.62
2016-08-07T04:58:28.666Z,21.63
2016-08-07T04:59:37.459Z,21.62
2016-08-07T05:00:34.164Z,21.61
2016-08-07T05:01:32.879Z,21.62
2016-08-07T05:02:25.631Z,21.62
2016-08-07T05:03:19.699Z,21.62
2016-08-07T05:04:40.671Z,21.62
2016-08-07T05:05:34.511Z,21.61
2016-08-07T05:06:13.670Z,21.61
2016-08-07T05:07:35.673Z,21.61
2016-08-07T05:08:13.378Z,21.61
2016-08-07T05:09:28.111Z,21.61
2016-08-07T05:10:28.409Z,21.61
2016-08-07T05:11:20.695Z,21.61
2016-08-07T05:12:32.637Z,21.61
2016-08-07T05:13:34.177Z,21.61
2016-08-07T05:14:36.719Z,21.61
2016-08-07T05:15:33.476Z,21.61
2016-08-07T05:16:26.925Z,21.60
2016-08-07T05:17:32.287Z,22.14
2016-08-07T05:18:29.041Z,22.20
2016-08-07T05:19:28.847Z,21.70
2016-08-07T05:20:37.882Z,21.65
2016-08-07T05:21:14.566Z,21.63
2016-08-07T05:22:32.803Z,21.62
2016-08-07T05:23:28.944Z,21.62
2016-08-07T05:24:38.396Z,21.61
2016-08-07T05:25:31.355Z,21.61
2016-08-07T05:26:30.479Z,21.62
2016-08-07T05:27:16.996Z,21.61
2016-08-07T05:28:14.377Z,21.61
2016-08-07T05:29:36.713Z,21.60
2016-08-07T05:30:27.580Z,21.60
2016-08-07T05:31:27.153Z,21.61
2016-08-07T05:32:28.398Z,21.60
2016-08-07T05:33:32.593Z,21.60
2016-08-07T05:34:34.997Z,21.62
2016-08-07T05:35:29.230Z,21.59
2016-08-07T05:36:30.398Z,21.60
2016-08-07T05:38:30.456Z,21.60
2016-08-07T05:39:21.710Z,21.60
2016-08-07T05:40:33.087Z,21.60
2016-08-07T05:41:28.777Z,21.60
2016-08-07T05:42:30.562Z,21.60
2016-08-07T05:43:33.788Z,21.59
2016-08-07T05:44:33.226Z,21.60
2016-08-07T05:45:34.352Z,21.59
2016-08-07T05:46:34.430Z,21.60
2016-08-07T05:47:33.222Z,21.58
2016-08-07T05:48:39.246Z,22.14
2016-08-07T05:49:23.826Z,22.18
2016-08-07T05:50:29.164Z,22.21
2016-08-07T05:51:29.407Z,22.22
2016-08-07T05:52:28.780Z,21.90
2016-08-07T05:53:34.577Z,21.70
2016-08-07T05:54:34.110Z,21.64
2016-08-07T05:55:32.676Z,21.62
2016-08-07T05:56:33.458Z,21.61
2016-08-07T05:57:34.904Z,21.61
2016-08-07T05:58:28.286Z,21.63
2016-08-07T05:59:28.513Z,21.60
2016-08-07T06:00:25.858Z,21.60
2016-08-07T06:01:26.651Z,21.81
2016-08-07T06:02:33.757Z,21.65
2016-08-07T06:03:15.380Z,21.62
2016-08-07T06:04:27.164Z,21.61
2016-08-07T06:05:36.551Z,21.60
2016-08-07T06:06:28.979Z,21.60
2016-08-07T06:07:27.723Z,21.59
2016-08-07T06:08:27.770Z,21.60
2016-08-07T06:09:31.641Z,21.60
2016-08-07T06:10:33.226Z,21.59
2016-08-07T06:11:21.297Z,21.62
2016-08-07T06:12:33.815Z,21.59
2016-08-07T06:13:30.954Z,21.60
2016-08-07T06:14:30.667Z,21.59
2016-08-07T06:15:15.668Z,21.58
2016-08-07T06:16:27.777Z,22.13
2016-08-07T06:17:39.513Z,21.64
2016-08-07T06:18:39.669Z,21.62
2016-08-07T06:19:42.601Z,21.60
2016-08-07T06:20:26.190Z,21.60
2016-08-07T06:21:30.383Z,21.59
2016-08-07T06:22:33.613Z,21.59
2016-08-07T06:23:27.408Z,21.59
2016-08-07T06:24:39.376Z,21.56
2016-08-07T06:25:28.655Z,21.59
2016-08-07T06:26:26.994Z,21.59
2016-08-07T06:27:28.499Z,21.60
2016-08-07T06:28:35.027Z,21.59
2016-08-07T06:29:34.284Z,21.60
2016-08-07T06:30:33.468Z,21.59
2016-08-07T06:31:28.724Z,21.59
2016-08-07T06:32:32.318Z,21.59
2016-08-07T06:33:32.389Z,21.59
2016-08-07T06:34:23.933Z,21.59
2016-08-07T06:35:33.887Z,21.59
2016-08-07T06:36:31.632Z,21.60
2016-08-07T06:37:31.693Z,21.60
2016-08-07T06:38:26.433Z,21.60
2016-08-07T06:39:25.802Z,21.60
2016-08-07T06:40:34.402Z,21.59
2016-08-07T06:41:32.492Z,21.60
2016-08-07T06:42:36.602Z,21.59
2016-08-07T06:43:13.764Z,21.59
2016-08-07T06:44:28.218Z,21.60
2016-08-07T06:45:15.130Z,21.60
2016-08-07T06:46:33.620Z,21.60
2016-08-07T06:47:35.111Z,21.60
2016-08-07T06:48:29.205Z,21.60
2016-08-07T06:49:33.742Z,21.60
2016-08-07T06:50:28.653Z,21.60
2016-08-07T06:51:33.054Z,21.60
2016-08-07T06:52:37.060Z,21.61
2016-08-07T06:53:34.506Z,21.65
2016-08-07T06:54:28.658Z,21.60
2016-08-07T06:55:21.549Z,21.61
2016-08-07T06:56:27.785Z,21.61
2016-08-07T06:57:21.197Z,21.61
2016-08-07T06:58:27.409Z,21.60
2016-08-07T06:59:36.972Z,21.60
2016-08-07T07:00:32.505Z,21.61
2016-08-07T07:01:36.862Z,21.60
2016-08-07T07:02:27.677Z,21.60
2016-08-07T07:03:21.706Z,21.60
2016-08-07T07:04:28.107Z,21.60
2016-08-07T07:05:32.986Z,21.61
2016-08-07T07:06:23.106Z,21.61
2016-08-07T07:08:22.847Z,21.62
2016-08-07T07:09:15.868Z,21.68
2016-08-07T07:10:16.375Z,21.63
2016-08-07T07:11:33.515Z,21.63
2016-08-07T07:12:35.522Z,21.63
2016-08-07T07:13:30.221Z,21.64
2016-08-07T07:14:14.020Z,21.64
2016-08-07T07:15:16.675Z,22.17
2016-08-07T07:16:22.547Z,22.25
2016-08-07T07:17:38.987Z,22.29
2016-08-07T07:18:32.063Z,22.30
2016-08-07T07:19:12.887Z,22.32
2016-08-07T07:20:26.216Z,22.16
2016-08-07T07:21:39.096Z,21.80
2016-08-07T07:22:26.491Z,21.76
2016-08-07T07:23:22.978Z,21.73
2016-08-07T07:24:33.469Z,21.71
2016-08-07T07:25:43.336Z,21.71
2016-08-07T07:26:22.982Z,21.70
2016-08-07T07:27:28.392Z,21.69
2016-08-07T07:28:19.718Z,21.69
2016-08-07T07:29:32.754Z,21.67
2016-08-07T07:30:22.397Z,21.65
2016-08-07T07:31:44.488Z,21.65
2016-08-07T07:32:20.810Z,21.67
2016-08-07T07:33:16.132Z,21.67
2016-08-07T07:34:18.075Z,21.68
2016-08-07T07:35:30.324Z,21.67
2016-08-07T07:36:30.300Z,21.68
2016-08-07T07:37:15.123Z,21.69
2016-08-07T07:38:28.296Z,21.70
2016-08-07T07:39:13.485Z,21.70
2016-08-07T07:40:33.687Z,21.72
2016-08-07T07:41:36.037Z,21.71
2016-08-07T07:42:27.531Z,21.73
2016-08-07T07:43:22.738Z,21.70
2016-08-07T07:44:28.666Z,21.71
2016-08-07T07:45:25.066Z,21.73
2016-08-07T07:46:27.082Z,21.77
2016-08-07T07:47:30.292Z,21.75
2016-08-07T08:02:23.473Z,21.83
2016-08-07T08:03:34.641Z,21.83
2016-08-07T08:04:14.890Z,21.84
2016-08-07T08:05:21.761Z,21.85
2016-08-07T08:06:20.351Z,21.87
2016-08-07T08:07:16.013Z,21.88
2016-08-07T08:08:13.003Z,21.93
2016-08-07T08:09:13.155Z,21.89
2016-08-07T08:10:11.834Z,21.92
2016-08-07T08:11:19.558Z,21.92
2016-08-07T08:12:18.049Z,21.93
2016-08-07T08:13:13.808Z,22.49
2016-08-07T08:14:33.511Z,22.19
2016-08-07T08:15:14.423Z,22.04
2016-08-07T08:16:34.077Z,22.05
2016-08-07T08:17:14.869Z,22.54
2016-08-07T08:18:28.461Z,22.58
2016-08-07T08:19:23.360Z,22.60
2016-08-07T08:20:28.364Z,22.60
2016-08-07T08:21:22.599Z,22.60
2016-08-07T08:22:17.273Z,22.10
2016-08-07T08:23:26.083Z,22.10
2016-08-07T08:24:27.177Z,22.59
2016-08-07T08:25:26.550Z,22.63
2016-08-07T08:26:18.210Z,22.13
2016-08-07T08:27:28.443Z,22.09
2016-08-07T08:28:13.128Z,22.08
2016-08-07T08:29:14.319Z,22.05
2016-08-07T08:30:13.261Z,22.12
2016-08-07T08:31:12.109Z,22.05
2016-08-07T08:32:19.444Z,22.05
2016-08-07T08:33:15.489Z,22.05
2016-08-07T08:34:22.766Z,22.05
2016-08-07T08:35:21.773Z,22.04
2016-08-07T08:36:13.842Z,22.03
2016-08-07T08:37:18.331Z,22.03
2016-08-07T08:38:23.658Z,22.09
2016-08-07T08:39:22.479Z,22.02
2016-08-07T08:40:20.870Z,22.01
2016-08-07T08:41:27.465Z,22.01
2016-08-07T08:42:16.476Z,22.01
2016-08-07T08:43:16.597Z,22.54
2016-08-07T08:44:27.492Z,22.59
2016-08-07T08:45:23.085Z,22.62
2016-08-07T08:46:16.570Z,22.62
2016-08-07T08:47:12.544Z,22.63
2016-08-07T08:48:16.586Z,22.62
2016-08-07T08:49:15.540Z,22.09
2016-08-07T08:50:13.380Z,22.05
2016-08-07T08:51:20.064Z,22.04
2016-08-07T08:52:33.389Z,21.99
2016-08-07T08:53:15.348Z,21.98
2016-08-07T08:54:11.299Z,21.96
2016-08-07T08:55:28.430Z,21.96
2016-08-07T08:56:14.158Z,22.14
2016-08-07T08:57:23.104Z,22.00
2016-08-07T08:58:23.288Z,22.03
2016-08-07T08:59:19.403Z,21.96
2016-08-07T09:00:16.658Z,21.96
2016-08-07T09:01:16.827Z,21.95
2016-08-07T09:02:19.678Z,21.94
2016-08-07T09:03:12.927Z,21.97
2016-08-07T09:04:21.964Z,21.95
2016-08-07T09:05:17.296Z,21.95
2016-08-07T09:06:27.609Z,21.94
2016-08-07T09:07:19.718Z,21.95
2016-08-07T09:08:15.192Z,21.94
2016-08-07T09:09:19.774Z,21.95
2016-08-07T09:10:25.922Z,21.99
2016-08-07T09:11:17.077Z,21.94
2016-08-07T09:12:40.716Z,21.94
2016-08-07T09:13:13.062Z,21.94
2016-08-07T09:14:19.284Z,21.92
2016-08-07T09:15:16.605Z,21.95
2016-08-07T09:16:27.065Z,21.92
2016-08-07T09:17:28.561Z,21.91
2016-08-07T09:18:15.361Z,21.91
2016-08-07T09:19:23.865Z,21.91
2016-08-07T09:20:10.252Z,21.89
2016-08-07T09:21:24.228Z,21.89
2016-08-07T09:22:31.803Z,22.43
2016-08-07T09:24:27.367Z,22.51
2016-08-07T09:25:22.645Z,22.52
2016-08-07T09:26:19.852Z,22.53
2016-08-07T09:27:28.150Z,22.21
2016-08-07T09:28:17.680Z,22.00
2016-08-07T09:29:14.875Z,21.94
2016-08-07T09:30:24.016Z,21.92
2016-08-07T09:31:16.799Z,21.90
2016-08-07T09:32:22.250Z,21.89
2016-08-07T09:33:23.581Z,21.88
2016-08-07T09:34:21.215Z,21.88
2016-08-07T09:35:19.875Z,21.88
2016-08-07T09:36:16.232Z,21.91
2016-08-07T09:37:18.919Z,21.87
2016-08-07T09:38:22.567Z,21.88
2016-08-07T09:39:16.484Z,21.89
2016-08-07T09:40:27.891Z,21.92
2016-08-07T09:41:14.942Z,21.90
2016-08-07T09:42:14.494Z,21.90
2016-08-07T09:43:15.922Z,21.94
2016-08-07T09:44:18.329Z,21.90
2016-08-07T09:45:17.839Z,21.91
2016-08-07T09:46:22.508Z,21.94
2016-08-07T09:47:24.446Z,21.91
2016-08-07T09:48:13.080Z,21.91
2016-08-07T09:49:20.206Z,21.91
2016-08-07T09:50:24.837Z,21.90
2016-08-07T09:51:22.008Z,21.89
2016-08-07T09:52:27.515Z,21.90
2016-08-07T09:54:17.328Z,21.90
2016-08-07T09:55:19.982Z,21.90
2016-08-07T09:56:14.032Z,22.44
2016-08-07T09:57:19.047Z,22.48
2016-08-07T09:58:14.860Z,22.51
2016-08-07T09:59:20.382Z,22.53
2016-08-07T10:00:16.927Z,22.53
2016-08-07T10:01:16.793Z,22.17
2016-08-07T10:02:16.003Z,21.98
2016-08-07T10:03:15.071Z,21.93
2016-08-07T10:04:13.723Z,21.90
2016-08-07T10:05:19.653Z,21.89
2016-08-07T10:06:19.759Z,21.87
2016-08-07T10:07:16.993Z,21.87
2016-08-07T10:09:17.161Z,21.88
2016-08-07T10:10:19.070Z,21.89
2016-08-07T10:11:17.972Z,21.88
2016-08-07T10:12:16.339Z,21.83
2016-08-07T10:13:22.070Z,21.75
2016-08-07T10:14:26.486Z,21.68
2016-08-07T10:15:21.184Z,21.61
2016-08-07T10:16:12.627Z,21.58
2016-08-07T10:17:33.817Z,21.55
2016-08-07T10:18:21.895Z,21.54
2016-08-07T10:19:17.205Z,21.58
2016-08-07T10:20:21.029Z,21.52
2016-08-07T10:21:25.564Z,21.50
2016-08-07T10:22:22.767Z,21.49
2016-08-07T10:23:16.515Z,21.50
2016-08-07T10:24:27.379Z,21.50
2016-08-07T10:25:16.209Z,21.44
2016-08-07T10:26:16.317Z,21.96
2016-08-07T10:27:21.302Z,21.97
2016-08-07T10:28:23.419Z,22.02
2016-08-07T10:29:23.802Z,22.03
2016-08-07T10:30:27.959Z,22.03
2016-08-07T10:31:20.994Z,22.02
2016-08-07T10:32:30.719Z,21.46
2016-08-07T10:33:22.727Z,21.46
2016-08-07T10:34:28.677Z,21.39
2016-08-07T10:35:29.316Z,21.42
2016-08-07T10:36:21.017Z,21.43
2016-08-07T10:37:25.349Z,21.43
2016-08-07T10:39:15.446Z,21.44
2016-08-07T10:40:17.891Z,21.45
2016-08-07T10:41:22.160Z,21.45
2016-08-07T10:42:16.877Z,21.47
2016-08-07T10:43:31.202Z,21.49
2016-08-07T10:44:14.556Z,21.49
2016-08-07T10:45:13.982Z,21.53
2016-08-07T10:46:24.854Z,21.48
2016-08-07T10:47:33.699Z,21.46
2016-08-07T10:48:22.062Z,21.50
2016-08-07T10:49:26.798Z,21.42
2016-08-07T10:50:25.162Z,21.42
2016-08-07T10:51:21.241Z,21.41
2016-08-07T10:52:26.333Z,21.41
2016-08-07T10:53:18.149Z,21.39
2016-08-07T10:54:22.787Z,21.39
2016-08-07T10:55:15.533Z,21.36
2016-08-07T10:56:16.582Z,21.38
2016-08-07T10:57:20.254Z,21.39
2016-08-07T10:58:25.074Z,21.38
2016-08-07T10:59:18.682Z,21.37
2016-08-07T11:00:22.209Z,21.35
2016-08-07T11:01:15.636Z,21.32
2016-08-07T11:02:32.129Z,21.32
2016-08-07T11:03:13.079Z,21.31
2016-08-07T11:04:22.835Z,21.29
2016-08-07T11:05:27.496Z,21.28
2016-08-07T11:06:21.908Z,21.29
2016-08-07T11:07:23.964Z,21.29
2016-08-07T11:08:16.626Z,21.28
2016-08-07T11:09:12.865Z,21.27
2016-08-07T11:10:12.829Z,21.28
2016-08-07T11:11:14.721Z,21.27
2016-08-07T11:12:13.226Z,21.26
2016-08-07T11:13:14.497Z,21.27
2016-08-07T11:14:14.416Z,21.26
2016-08-07T11:15:14.908Z,21.26
2016-08-07T11:16:13.847Z,21.31
2016-08-07T11:17:19.075Z,21.28
2016-08-07T11:18:17.557Z,21.27
2016-08-07T11:19:21.741Z,21.26
2016-08-07T11:20:17.818Z,21.26
2016-08-07T11:21:21.386Z,21.26
2016-08-07T11:22:14.403Z,21.26
2016-08-07T11:23:16.709Z,21.23
2016-08-07T11:24:16.897Z,21.22
2016-08-07T11:25:13.855Z,21.23
2016-08-07T11:26:16.026Z,21.23
2016-08-07T11:27:17.453Z,21.25
2016-08-07T11:28:13.386Z,21.21
2016-08-07T11:29:14.997Z,21.23
2016-08-07T11:30:14.488Z,21.25
2016-08-07T11:31:13.533Z,21.23
2016-08-07T11:32:13.260Z,21.23
2016-08-07T11:33:13.050Z,21.23
2016-08-07T11:34:14.563Z,21.78
2016-08-07T11:35:12.411Z,21.83
2016-08-07T11:36:18.620Z,21.56
2016-08-07T11:37:14.616Z,21.38
2016-08-07T11:38:13.005Z,21.43
2016-08-07T11:39:12.781Z,21.42
2016-08-07T11:40:12.207Z,21.46
2016-08-07T11:41:13.312Z,21.48
2016-08-07T11:42:15.754Z,21.50
2016-08-07T11:43:13.154Z,21.51
2016-08-07T11:44:14.446Z,22.08
2016-08-07T11:45:16.895Z,22.15
2016-08-07T11:46:16.656Z,22.18
2016-08-07T11:47:15.585Z,22.20
2016-08-07T11:48:18.114Z,21.86
2016-08-07T11:49:22.456Z,21.71
2016-08-07T11:50:17.807Z,21.68
2016-08-07T11:51:15.745Z,21.66
2016-08-07T11:52:15.694Z,21.66
2016-08-07T11:53:14.736Z,21.66
2016-08-07T11:54:14.352Z,21.69
2016-08-07T11:55:14.520Z,21.67
2016-08-07T11:56:13.029Z,21.75
2016-08-07T11:57:14.066Z,21.74
2016-08-07T11:58:12.462Z,21.69
2016-08-07T11:59:11.791Z,21.69
2016-08-07T12:00:21.724Z,21.70
2016-08-07T12:01:14.463Z,21.69
2016-08-07T12:02:15.642Z,21.74
2016-08-07T12:03:14.809Z,21.74
2016-08-07T12:04:14.118Z,22.25
2016-08-07T12:05:13.317Z,22.30
2016-08-07T12:06:13.508Z,22.36
2016-08-07T12:07:12.333Z,22.36
2016-08-07T12:08:14.347Z,22.37
2016-08-07T12:09:12.377Z,22.35
2016-08-07T12:10:13.102Z,22.38
2016-08-07T12:11:14.397Z,22.40
2016-08-07T12:12:11.770Z,22.44
2016-08-07T12:13:11.275Z,22.44
2016-08-07T12:14:11.931Z,21.95
2016-08-07T12:15:12.368Z,21.89
2016-08-07T12:16:11.550Z,21.88
2016-08-07T12:17:12.691Z,21.88
2016-08-07T12:18:14.115Z,21.89
2016-08-07T12:19:12.859Z,21.93
2016-08-07T12:20:13.130Z,21.92
2016-08-07T12:21:18.916Z,21.94
2016-08-07T12:22:19.399Z,21.93
2016-08-07T12:23:13.949Z,21.94
2016-08-07T12:24:12.605Z,21.95
2016-08-07T12:25:15.624Z,21.98
2016-08-07T12:26:16.169Z,21.97
2016-08-07T12:27:15.985Z,21.98
2016-08-07T12:28:15.633Z,21.98
2016-08-07T12:29:18.592Z,22.00
2016-08-07T12:30:13.408Z,22.02
2016-08-07T12:31:14.490Z,22.02
2016-08-07T12:32:12.216Z,22.03
2016-08-07T12:33:11.923Z,22.03
2016-08-07T12:34:16.034Z,22.06
2016-08-07T12:35:12.949Z,22.04
2016-08-07T12:36:13.954Z,22.05
2016-08-07T12:37:12.803Z,22.07
2016-08-07T12:38:15.593Z,22.06
2016-08-07T12:39:13.782Z,22.06
2016-08-07T12:40:15.077Z,22.06
2016-08-07T12:41:13.367Z,22.09
2016-08-07T12:42:19.884Z,22.08
2016-08-07T12:43:13.618Z,22.09
2016-08-07T12:44:16.675Z,22.09
2016-08-07T12:45:18.046Z,22.08
2016-08-07T12:46:16.493Z,22.09
2016-08-07T12:47:10.815Z,22.08
2016-08-07T12:48:15.330Z,22.63
2016-08-07T12:49:16.524Z,22.46
2016-08-07T12:50:12.618Z,22.14
2016-08-07T12:51:16.400Z,22.09
2016-08-07T12:52:16.793Z,22.06
2016-08-07T12:53:15.148Z,22.06
2016-08-07T12:55:19.881Z,22.03
2016-08-07T12:56:16.308Z,22.03
2016-08-07T12:57:18.886Z,22.03
2016-08-07T12:58:12.404Z,22.01
2016-08-07T12:59:16.683Z,22.02
2016-08-07T13:00:16.342Z,22.03
2016-08-07T13:01:13.373Z,22.03
2016-08-07T13:02:13.555Z,22.04
2016-08-07T13:03:12.376Z,22.05
2016-08-07T13:04:15.025Z,22.59
2016-08-07T13:05:14.147Z,22.63
2016-08-07T13:06:15.397Z,22.65
2016-08-07T13:07:21.318Z,22.65
2016-08-07T13:08:15.898Z,22.66
2016-08-07T13:10:15.417Z,22.11
2016-08-07T13:11:13.002Z,22.07
2016-08-07T13:12:15.400Z,22.08
2016-08-07T13:13:18.038Z,22.02
2016-08-07T13:14:10.594Z,22.01
2016-08-07T13:15:15.388Z,22.00
2016-08-07T13:16:13.881Z,22.00
2016-08-07T13:17:13.559Z,21.98